sensor_id;sensor_type;location;lat;lon;timestamp;temperature;humidity
64501;DHT22;50874;24.150;-110.320;2022-08-21T00:01:16;34.10;95.70
64501;DHT22;50874;24.150;-110.320;2022-08-21T00:03:42;34.00;96.10
64501;DHT22;50874;24.150;-110.320;2022-08-21T00:06:09;33.90;96.30
64501;DHT22;50874;24.150;-110.320;2022-08-21T00:08:35;33.80;96.50
64501;DHT22;50874;24.150;-110.320;2022-08-21T00:11:03;33.90;96.50
64501;DHT22;50874;24.150;-110.320;2022-08-21T00:13:30;33.60;96.10
64501;DHT22;50874;24.150;-110.320;2022-08-21T00:15:58;33.40;96.50
64501;DHT22;50874;24.150;-110.320;2022-08-21T00:18:25;33.30;96.40
64501;DHT22;50874;24.150;-110.320;2022-08-21T00:20:51;33.30;96.50
64501;DHT22;50874;24.150;-110.320;2022-08-21T00:23:18;33.20;96.70
64501;DHT22;50874;24.150;-110.320;2022-08-21T00:25:45;33.10;96.80
64501;DHT22;50874;24.150;-110.320;2022-08-21T00:28:12;33.00;97.00
64501;DHT22;50874;24.150;-110.320;2022-08-21T00:30:39;32.90;97.10
64501;DHT22;50874;24.150;-110.320;2022-08-21T00:33:06;32.70;97.30
64501;DHT22;50874;24.150;-110.320;2022-08-21T00:35:37;32.50;97.30
64501;DHT22;50874;24.150;-110.320;2022-08-21T00:38:06;32.60;97.70
64501;DHT22;50874;24.150;-110.320;2022-08-21T00:40:41;32.70;97.80
64501;DHT22;50874;24.150;-110.320;2022-08-21T00:43:10;32.50;97.90
64501;DHT22;50874;24.150;-110.320;2022-08-21T00:45:37;32.50;97.90
64501;DHT22;50874;24.150;-110.320;2022-08-21T00:48:05;32.30;98.20
64501;DHT22;50874;24.150;-110.320;2022-08-21T00:50:34;32.20;98.50
64501;DHT22;50874;24.150;-110.320;2022-08-21T00:53:02;32.10;98.70
64501;DHT22;50874;24.150;-110.320;2022-08-21T00:55:31;32.10;98.80
64501;DHT22;50874;24.150;-110.320;2022-08-21T00:58:00;32.20;98.80
64501;DHT22;50874;24.150;-110.320;2022-08-21T01:00:32;32.10;99.00
64501;DHT22;50874;24.150;-110.320;2022-08-21T01:03:01;32.00;99.30
64501;DHT22;50874;24.150;-110.320;2022-08-21T01:05:27;32.00;99.50
64501;DHT22;50874;24.150;-110.320;2022-08-21T01:07:55;31.90;99.70
64501;DHT22;50874;24.150;-110.320;2022-08-21T01:10:24;31.80;99.40
64501;DHT22;50874;24.150;-110.320;2022-08-21T01:12:55;31.90;99.60
64501;DHT22;50874;24.150;-110.320;2022-08-21T01:15:24;31.80;99.60
64501;DHT22;50874;24.150;-110.320;2022-08-21T01:17:52;31.80;99.70
64501;DHT22;50874;24.150;-110.320;2022-08-21T01:20:19;31.60;99.90
64501;DHT22;50874;24.150;-110.320;2022-08-21T01:22:46;31.60;99.90
64501;DHT22;50874;24.150;-110.320;2022-08-21T01:25:15;31.60;99.90
64501;DHT22;50874;24.150;-110.320;2022-08-21T01:27:42;31.40;99.90
64501;DHT22;50874;24.150;-110.320;2022-08-21T01:30:22;31.30;99.90
64501;DHT22;50874;24.150;-110.320;2022-08-21T01:32:49;31.30;99.90
64501;DHT22;50874;24.150;-110.320;2022-08-21T01:35:18;31.30;99.90
64501;DHT22;50874;24.150;-110.320;2022-08-21T01:37:45;31.30;99.90
64501;DHT22;50874;24.150;-110.320;2022-08-21T01:40:13;31.20;99.90
64501;DHT22;50874;24.150;-110.320;2022-08-21T01:42:43;31.10;99.90
64501;DHT22;50874;24.150;-110.320;2022-08-21T01:45:10;31.00;99.90
64501;DHT22;50874;24.150;-110.320;2022-08-21T01:47:38;31.00;99.90
64501;DHT22;50874;24.150;-110.320;2022-08-21T01:50:07;31.00;99.90
64501;DHT22;50874;24.150;-110.320;2022-08-21T01:52:34;30.90;99.90
64501;DHT22;50874;24.150;-110.320;2022-08-21T01:55:00;30.80;99.90
64501;DHT22;50874;24.150;-110.320;2022-08-21T01:57:27;30.80;99.90
64501;DHT22;50874;24.150;-110.320;2022-08-21T01:59:54;30.80;99.90
64501;DHT22;50874;24.150;-110.320;2022-08-21T02:02:20;30.80;99.90
64501;DHT22;50874;24.150;-110.320;2022-08-21T02:04:47;30.80;99.90
64501;DHT22;50874;24.150;-110.320;2022-08-21T02:07:13;30.70;99.90
64501;DHT22;50874;24.150;-110.320;2022-08-21T02:09:41;30.50;99.90
64501;DHT22;50874;24.150;-110.320;2022-08-21T02:12:10;30.50;99.90
64501;DHT22;50874;24.150;-110.320;2022-08-21T02:14:36;30.50;99.90
64501;DHT22;50874;24.150;-110.320;2022-08-21T02:17:04;30.50;99.90
64501;DHT22;50874;24.150;-110.320;2022-08-21T02:19:30;30.40;99.90
64501;DHT22;50874;24.150;-110.320;2022-08-21T02:21:57;30.40;99.90
64501;DHT22;50874;24.150;-110.320;2022-08-21T02:24:23;30.30;99.90
64501;DHT22;50874;24.150;-110.320;2022-08-21T02:26:50;30.30;99.90
64501;DHT22;50874;24.150;-110.320;2022-08-21T02:29:16;30.20;99.90
64501;DHT22;50874;24.150;-110.320;2022-08-21T02:31:43;30.20;99.90
64501;DHT22;50874;24.150;-110.320;2022-08-21T02:34:09;30.20;99.90
64501;DHT22;50874;24.150;-110.320;2022-08-21T02:36:36;30.10;99.90
64501;DHT22;50874;24.150;-110.320;2022-08-21T02:39:03;30.20;99.90
64501;DHT22;50874;24.150;-110.320;2022-08-21T02:41:29;30.10;99.90
64501;DHT22;50874;24.150;-110.320;2022-08-21T02:43:55;30.10;99.90
64501;DHT22;50874;24.150;-110.320;2022-08-21T02:46:22;30.10;99.90
64501;DHT22;50874;24.150;-110.320;2022-08-21T02:48:49;29.90;99.90
64501;DHT22;50874;24.150;-110.320;2022-08-21T02:51:18;30.00;99.90
64501;DHT22;50874;24.150;-110.320;2022-08-21T02:53:47;30.00;99.90
64501;DHT22;50874;24.150;-110.320;2022-08-21T02:56:16;29.90;99.90
64501;DHT22;50874;24.150;-110.320;2022-08-21T02:58:47;29.90;99.90
64501;DHT22;50874;24.150;-110.320;2022-08-21T03:01:13;29.80;99.90
64501;DHT22;50874;24.150;-110.320;2022-08-21T03:03:42;29.80;99.90
64501;DHT22;50874;24.150;-110.320;2022-08-21T03:06:11;29.70;99.90
64501;DHT22;50874;24.150;-110.320;2022-08-21T03:08:39;29.70;99.90
64501;DHT22;50874;24.150;-110.320;2022-08-21T03:11:06;29.70;99.90
64501;DHT22;50874;24.150;-110.320;2022-08-21T03:13:32;29.80;99.90
64501;DHT22;50874;24.150;-110.320;2022-08-21T03:15:59;29.70;99.90
64501;DHT22;50874;24.150;-110.320;2022-08-21T03:18:26;29.70;99.90
64501;DHT22;50874;24.150;-110.320;2022-08-21T03:20:52;29.70;99.90
64501;DHT22;50874;24.150;-110.320;2022-08-21T03:23:19;29.60;99.90
64501;DHT22;50874;24.150;-110.320;2022-08-21T03:25:47;29.70;99.90
64501;DHT22;50874;24.150;-110.320;2022-08-21T03:28:16;29.60;99.90
64501;DHT22;50874;24.150;-110.320;2022-08-21T03:30:45;29.50;99.90
64501;DHT22;50874;24.150;-110.320;2022-08-21T03:33:13;29.40;99.90
64501;DHT22;50874;24.150;-110.320;2022-08-21T03:35:40;29.40;99.90
64501;DHT22;50874;24.150;-110.320;2022-08-21T03:38:08;29.40;99.90
64501;DHT22;50874;24.150;-110.320;2022-08-21T03:40:34;29.30;99.90
64501;DHT22;50874;24.150;-110.320;2022-08-21T03:43:01;29.20;99.90
64501;DHT22;50874;24.150;-110.320;2022-08-21T03:45:28;29.10;99.90
64501;DHT22;50874;24.150;-110.320;2022-08-21T03:48:00;29.10;99.90
64501;DHT22;50874;24.150;-110.320;2022-08-21T03:50:30;29.10;99.90
64501;DHT22;50874;24.150;-110.320;2022-08-21T03:52:57;28.90;99.90
64501;DHT22;50874;24.150;-110.320;2022-08-21T03:55:25;28.90;99.90
64501;DHT22;50874;24.150;-110.320;2022-08-21T03:57:52;28.90;99.90
64501;DHT22;50874;24.150;-110.320;2022-08-21T04:00:19;28.90;99.90
64501;DHT22;50874;24.150;-110.320;2022-08-21T04:02:46;28.80;99.90
64501;DHT22;50874;24.150;-110.320;2022-08-21T04:05:14;28.80;99.90
64501;DHT22;50874;24.150;-110.320;2022-08-21T04:08:04;28.80;99.90
64501;DHT22;50874;24.150;-110.320;2022-08-21T04:10:33;28.80;99.90
64501;DHT22;50874;24.150;-110.320;2022-08-21T04:13:00;28.80;99.90
64501;DHT22;50874;24.150;-110.320;2022-08-21T04:15:27;28.80;99.90
64501;DHT22;50874;24.150;-110.320;2022-08-21T04:17:54;28.80;99.90
64501;DHT22;50874;24.150;-110.320;2022-08-21T04:20:21;28.80;99.90
64501;DHT22;50874;24.150;-110.320;2022-08-21T04:22:48;28.80;99.90
64501;DHT22;50874;24.150;-110.320;2022-08-21T04:25:18;28.90;99.90
64501;DHT22;50874;24.150;-110.320;2022-08-21T04:27:45;28.80;99.90
64501;DHT22;50874;24.150;-110.320;2022-08-21T04:30:13;28.80;99.90
64501;DHT22;50874;24.150;-110.320;2022-08-21T04:32:46;28.70;99.90
64501;DHT22;50874;24.150;-110.320;2022-08-21T04:35:14;28.70;99.90
64501;DHT22;50874;24.150;-110.320;2022-08-21T04:37:42;28.70;99.90
64501;DHT22;50874;24.150;-110.320;2022-08-21T04:40:09;28.60;99.90
64501;DHT22;50874;24.150;-110.320;2022-08-21T04:42:48;28.50;99.90
64501;DHT22;50874;24.150;-110.320;2022-08-21T04:45:31;28.50;99.90
64501;DHT22;50874;24.150;-110.320;2022-08-21T04:48:00;28.40;99.90
64501;DHT22;50874;24.150;-110.320;2022-08-21T04:53:10;28.40;99.90
64501;DHT22;50874;24.150;-110.320;2022-08-21T04:55:38;28.40;99.90
64501;DHT22;50874;24.150;-110.320;2022-08-21T04:58:09;28.40;99.90
64501;DHT22;50874;24.150;-110.320;2022-08-21T05:00:37;28.30;99.90
64501;DHT22;50874;24.150;-110.320;2022-08-21T05:03:05;28.30;99.90
64501;DHT22;50874;24.150;-110.320;2022-08-21T05:05:32;28.30;99.90
64501;DHT22;50874;24.150;-110.320;2022-08-21T05:08:01;28.30;99.90
64501;DHT22;50874;24.150;-110.320;2022-08-21T05:10:28;28.30;99.90
64501;DHT22;50874;24.150;-110.320;2022-08-21T05:12:55;28.30;99.90
64501;DHT22;50874;24.150;-110.320;2022-08-21T05:15:22;28.30;99.90
64501;DHT22;50874;24.150;-110.320;2022-08-21T05:17:48;28.30;99.90
64501;DHT22;50874;24.150;-110.320;2022-08-21T05:20:16;28.30;99.90
64501;DHT22;50874;24.150;-110.320;2022-08-21T05:22:43;28.20;99.90
64501;DHT22;50874;24.150;-110.320;2022-08-21T05:25:10;28.10;99.90
64501;DHT22;50874;24.150;-110.320;2022-08-21T05:27:37;28.00;99.90
64501;DHT22;50874;24.150;-110.320;2022-08-21T05:30:08;28.00;99.90
64501;DHT22;50874;24.150;-110.320;2022-08-21T05:32:36;28.00;99.90
64501;DHT22;50874;24.150;-110.320;2022-08-21T05:35:05;28.00;99.90
64501;DHT22;50874;24.150;-110.320;2022-08-21T05:37:31;27.90;99.90
64501;DHT22;50874;24.150;-110.320;2022-08-21T05:39:59;27.90;99.90
64501;DHT22;50874;24.150;-110.320;2022-08-21T05:42:26;27.90;99.90
64501;DHT22;50874;24.150;-110.320;2022-08-21T05:44:53;27.80;99.90
64501;DHT22;50874;24.150;-110.320;2022-08-21T05:47:20;27.80;99.90
64501;DHT22;50874;24.150;-110.320;2022-08-21T05:49:46;27.70;99.90
64501;DHT22;50874;24.150;-110.320;2022-08-21T05:52:19;27.70;99.90
64501;DHT22;50874;24.150;-110.320;2022-08-21T05:54:46;27.70;99.90
64501;DHT22;50874;24.150;-110.320;2022-08-21T05:57:12;27.60;99.90
64501;DHT22;50874;24.150;-110.320;2022-08-21T05:59:39;27.60;99.90
64501;DHT22;50874;24.150;-110.320;2022-08-21T06:02:06;27.60;99.90
64501;DHT22;50874;24.150;-110.320;2022-08-21T06:04:38;27.60;99.90
64501;DHT22;50874;24.150;-110.320;2022-08-21T06:07:05;27.60;99.90
64501;DHT22;50874;24.150;-110.320;2022-08-21T06:09:32;27.60;99.90
64501;DHT22;50874;24.150;-110.320;2022-08-21T06:12:04;27.60;99.90
64501;DHT22;50874;24.150;-110.320;2022-08-21T06:14:30;27.60;99.90
64501;DHT22;50874;24.150;-110.320;2022-08-21T06:17:06;27.60;99.90
64501;DHT22;50874;24.150;-110.320;2022-08-21T06:19:33;27.60;99.90
64501;DHT22;50874;24.150;-110.320;2022-08-21T06:22:00;27.50;99.90
64501;DHT22;50874;24.150;-110.320;2022-08-21T06:24:27;27.50;99.90
64501;DHT22;50874;24.150;-110.320;2022-08-21T06:26:54;27.50;99.90
64501;DHT22;50874;24.150;-110.320;2022-08-21T06:29:21;27.40;99.90
64501;DHT22;50874;24.150;-110.320;2022-08-21T06:31:49;27.40;99.90
64501;DHT22;50874;24.150;-110.320;2022-08-21T06:34:16;27.40;99.90
64501;DHT22;50874;24.150;-110.320;2022-08-21T06:36:43;27.30;99.90
64501;DHT22;50874;24.150;-110.320;2022-08-21T06:39:09;27.40;99.90
64501;DHT22;50874;24.150;-110.320;2022-08-21T06:41:36;27.30;99.90
64501;DHT22;50874;24.150;-110.320;2022-08-21T06:44:03;27.40;99.90
64501;DHT22;50874;24.150;-110.320;2022-08-21T06:46:30;27.40;99.90
64501;DHT22;50874;24.150;-110.320;2022-08-21T06:48:57;27.30;99.90
64501;DHT22;50874;24.150;-110.320;2022-08-21T06:51:25;27.30;99.90
64501;DHT22;50874;24.150;-110.320;2022-08-21T06:53:52;27.30;99.90
64501;DHT22;50874;24.150;-110.320;2022-08-21T06:56:19;27.20;99.90
64501;DHT22;50874;24.150;-110.320;2022-08-21T06:58:46;27.20;99.90
64501;DHT22;50874;24.150;-110.320;2022-08-21T07:01:12;27.10;99.90
64501;DHT22;50874;24.150;-110.320;2022-08-21T07:03:41;27.10;99.90
64501;DHT22;50874;24.150;-110.320;2022-08-21T07:06:09;27.10;99.90
64501;DHT22;50874;24.150;-110.320;2022-08-21T07:08:37;27.10;99.90
64501;DHT22;50874;24.150;-110.320;2022-08-21T07:11:09;27.10;99.90
64501;DHT22;50874;24.150;-110.320;2022-08-21T07:13:37;27.10;99.90
64501;DHT22;50874;24.150;-110.320;2022-08-21T07:16:03;27.20;99.90
64501;DHT22;50874;24.150;-110.320;2022-08-21T07:18:30;27.10;99.90
64501;DHT22;50874;24.150;-110.320;2022-08-21T07:20:56;27.10;99.90
64501;DHT22;50874;24.150;-110.320;2022-08-21T07:23:34;27.10;99.90
64501;DHT22;50874;24.150;-110.320;2022-08-21T07:26:01;27.10;99.90
64501;DHT22;50874;24.150;-110.320;2022-08-21T07:28:29;27.10;99.90
64501;DHT22;50874;24.150;-110.320;2022-08-21T07:30:57;27.00;99.90
64501;DHT22;50874;24.150;-110.320;2022-08-21T07:33:26;27.00;99.90
64501;DHT22;50874;24.150;-110.320;2022-08-21T07:35:53;27.10;99.90
64501;DHT22;50874;24.150;-110.320;2022-08-21T07:38:19;27.10;99.90
64501;DHT22;50874;24.150;-110.320;2022-08-21T07:40:47;27.00;99.90
64501;DHT22;50874;24.150;-110.320;2022-08-21T07:43:15;27.00;99.90
64501;DHT22;50874;24.150;-110.320;2022-08-21T07:45:43;27.00;99.90
64501;DHT22;50874;24.150;-110.320;2022-08-21T07:48:09;26.90;99.90
64501;DHT22;50874;24.150;-110.320;2022-08-21T07:50:36;26.90;99.90
64501;DHT22;50874;24.150;-110.320;2022-08-21T07:53:03;26.90;99.90
64501;DHT22;50874;24.150;-110.320;2022-08-21T07:55:30;26.90;99.90
64501;DHT22;50874;24.150;-110.320;2022-08-21T07:57:56;26.80;99.90
64501;DHT22;50874;24.150;-110.320;2022-08-21T08:00:24;26.90;99.90
64501;DHT22;50874;24.150;-110.320;2022-08-21T08:02:51;26.80;99.90
64501;DHT22;50874;24.150;-110.320;2022-08-21T08:05:21;26.80;99.90
64501;DHT22;50874;24.150;-110.320;2022-08-21T08:07:47;26.80;99.90
64501;DHT22;50874;24.150;-110.320;2022-08-21T08:10:14;26.80;99.90
64501;DHT22;50874;24.150;-110.320;2022-08-21T08:12:42;26.80;99.90
64501;DHT22;50874;24.150;-110.320;2022-08-21T08:15:14;26.80;99.90
64501;DHT22;50874;24.150;-110.320;2022-08-21T08:17:41;26.80;99.90
64501;DHT22;50874;24.150;-110.320;2022-08-21T08:20:08;26.70;99.90
64501;DHT22;50874;24.150;-110.320;2022-08-21T08:22:37;26.60;99.90
64501;DHT22;50874;24.150;-110.320;2022-08-21T08:25:06;26.60;99.90
64501;DHT22;50874;24.150;-110.320;2022-08-21T08:27:33;26.60;99.90
64501;DHT22;50874;24.150;-110.320;2022-08-21T08:30:00;26.60;99.90
64501;DHT22;50874;24.150;-110.320;2022-08-21T08:32:27;26.60;99.90
64501;DHT22;50874;24.150;-110.320;2022-08-21T08:34:53;26.60;99.90
64501;DHT22;50874;24.150;-110.320;2022-08-21T08:37:21;26.50;99.90
64501;DHT22;50874;24.150;-110.320;2022-08-21T08:39:47;26.50;99.90
64501;DHT22;50874;24.150;-110.320;2022-08-21T08:42:29;26.50;99.90
64501;DHT22;50874;24.150;-110.320;2022-08-21T08:45:09;26.50;99.90
64501;DHT22;50874;24.150;-110.320;2022-08-21T08:47:43;26.50;99.90
64501;DHT22;50874;24.150;-110.320;2022-08-21T08:50:24;26.50;99.90
64501;DHT22;50874;24.150;-110.320;2022-08-21T08:52:57;26.50;99.90
64501;DHT22;50874;24.150;-110.320;2022-08-21T08:55:33;26.50;99.90
64501;DHT22;50874;24.150;-110.320;2022-08-21T08:58:01;26.50;99.90
64501;DHT22;50874;24.150;-110.320;2022-08-21T09:00:29;26.50;99.90
64501;DHT22;50874;24.150;-110.320;2022-08-21T09:02:59;26.50;99.90
64501;DHT22;50874;24.150;-110.320;2022-08-21T09:05:27;26.50;99.90
64501;DHT22;50874;24.150;-110.320;2022-08-21T09:11:04;26.50;99.90
64501;DHT22;50874;24.150;-110.320;2022-08-21T09:13:53;26.50;99.90
64501;DHT22;50874;24.150;-110.320;2022-08-21T09:16:40;26.40;99.90
64501;DHT22;50874;24.150;-110.320;2022-08-21T09:19:24;26.50;99.90
64501;DHT22;50874;24.150;-110.320;2022-08-21T09:22:15;26.50;99.90
64501;DHT22;50874;24.150;-110.320;2022-08-21T09:27:28;26.40;99.90
64501;DHT22;50874;24.150;-110.320;2022-08-21T09:29:56;26.50;99.90
64501;DHT22;50874;24.150;-110.320;2022-08-21T09:32:29;26.50;99.90
64501;DHT22;50874;24.150;-110.320;2022-08-21T09:35:01;26.50;99.90
64501;DHT22;50874;24.150;-110.320;2022-08-21T09:37:31;26.50;99.90
64501;DHT22;50874;24.150;-110.320;2022-08-21T09:39:58;26.50;99.90
64501;DHT22;50874;24.150;-110.320;2022-08-21T09:42:28;26.50;99.90
64501;DHT22;50874;24.150;-110.320;2022-08-21T09:45:24;26.50;99.90
64501;DHT22;50874;24.150;-110.320;2022-08-21T09:47:50;26.50;99.90
64501;DHT22;50874;24.150;-110.320;2022-08-21T09:50:23;26.50;99.90
64501;DHT22;50874;24.150;-110.320;2022-08-21T09:52:55;26.50;99.90
64501;DHT22;50874;24.150;-110.320;2022-08-21T09:55:48;26.50;99.90
64501;DHT22;50874;24.150;-110.320;2022-08-21T09:58:36;26.50;99.90
64501;DHT22;50874;24.150;-110.320;2022-08-21T10:01:05;26.40;99.90
64501;DHT22;50874;24.150;-110.320;2022-08-21T10:03:32;26.40;99.90
64501;DHT22;50874;24.150;-110.320;2022-08-21T10:06:06;26.40;99.90
64501;DHT22;50874;24.150;-110.320;2022-08-21T10:08:37;26.40;99.90
64501;DHT22;50874;24.150;-110.320;2022-08-21T10:11:13;26.40;99.90
64501;DHT22;50874;24.150;-110.320;2022-08-21T10:14:06;26.40;99.90
64501;DHT22;50874;24.150;-110.320;2022-08-21T10:25:30;26.30;99.90
64501;DHT22;50874;24.150;-110.320;2022-08-21T10:47:06;26.30;99.90
64501;DHT22;50874;24.150;-110.320;2022-08-21T10:54:52;26.30;99.90
64501;DHT22;50874;24.150;-110.320;2022-08-21T10:57:40;26.20;99.90
64501;DHT22;50874;24.150;-110.320;2022-08-21T11:00:13;26.20;99.90
64501;DHT22;50874;24.150;-110.320;2022-08-21T11:08:14;26.20;99.90
64501;DHT22;50874;24.150;-110.320;2022-08-21T11:10:45;26.20;99.90
64501;DHT22;50874;24.150;-110.320;2022-08-21T11:18:49;26.10;99.90
64501;DHT22;50874;24.150;-110.320;2022-08-21T11:21:39;26.10;99.90
64501;DHT22;50874;24.150;-110.320;2022-08-21T11:29:43;26.10;99.90
64501;DHT22;50874;24.150;-110.320;2022-08-21T11:41:13;26.00;99.90
64501;DHT22;50874;24.150;-110.320;2022-08-21T11:43:49;26.00;99.90
64501;DHT22;50874;24.150;-110.320;2022-08-21T11:46:56;25.90;99.90
64501;DHT22;50874;24.150;-110.320;2022-08-21T11:49:46;25.90;99.90
64501;DHT22;50874;24.150;-110.320;2022-08-21T11:55:12;25.90;99.90
64501;DHT22;50874;24.150;-110.320;2022-08-21T11:58:06;25.80;99.90
64501;DHT22;50874;24.150;-110.320;2022-08-21T12:00:40;25.90;99.90
64501;DHT22;50874;24.150;-110.320;2022-08-21T12:03:17;25.90;99.90
64501;DHT22;50874;24.150;-110.320;2022-08-21T12:06:00;25.90;99.90
64501;DHT22;50874;24.150;-110.320;2022-08-21T12:08:31;25.90;99.90
64501;DHT22;50874;24.150;-110.320;2022-08-21T12:16:41;25.90;99.90
64501;DHT22;50874;24.150;-110.320;2022-08-21T12:19:13;25.90;99.90
64501;DHT22;50874;24.150;-110.320;2022-08-21T12:24:37;25.80;99.90
64501;DHT22;50874;24.150;-110.320;2022-08-21T12:28:24;25.80;99.90
64501;DHT22;50874;24.150;-110.320;2022-08-21T12:33:05;25.80;99.90
64501;DHT22;50874;24.150;-110.320;2022-08-21T12:35:41;25.80;99.90
64501;DHT22;50874;24.150;-110.320;2022-08-21T12:38:29;25.80;99.90
64501;DHT22;50874;24.150;-110.320;2022-08-21T12:41:04;25.80;99.90
64501;DHT22;50874;24.150;-110.320;2022-08-21T12:43:38;25.80;99.90
64501;DHT22;50874;24.150;-110.320;2022-08-21T12:46:06;25.80;99.90
64501;DHT22;50874;24.150;-110.320;2022-08-21T12:49:45;25.70;99.90
64501;DHT22;50874;24.150;-110.320;2022-08-21T12:51:55;25.70;99.90
64501;DHT22;50874;24.150;-110.320;2022-08-21T12:54:38;25.70;99.90
64501;DHT22;50874;24.150;-110.320;2022-08-21T12:57:06;25.70;99.90
64501;DHT22;50874;24.150;-110.320;2022-08-21T12:59:38;25.70;99.90
64501;DHT22;50874;24.150;-110.320;2022-08-21T13:02:19;25.70;99.90
64501;DHT22;50874;24.150;-110.320;2022-08-21T13:04:47;25.70;99.90
64501;DHT22;50874;24.150;-110.320;2022-08-21T13:07:20;25.70;99.90
64501;DHT22;50874;24.150;-110.320;2022-08-21T13:09:52;25.70;99.90
64501;DHT22;50874;24.150;-110.320;2022-08-21T13:12:21;25.70;99.90
64501;DHT22;50874;24.150;-110.320;2022-08-21T13:14:52;25.80;99.90
64501;DHT22;50874;24.150;-110.320;2022-08-21T13:17:22;25.80;99.90
64501;DHT22;50874;24.150;-110.320;2022-08-21T13:19:58;25.80;99.90
64501;DHT22;50874;24.150;-110.320;2022-08-21T13:22:27;25.80;99.90
64501;DHT22;50874;24.150;-110.320;2022-08-21T13:24:53;25.80;99.90
64501;DHT22;50874;24.150;-110.320;2022-08-21T13:27:28;25.80;99.90
64501;DHT22;50874;24.150;-110.320;2022-08-21T13:30:07;25.90;99.90
64501;DHT22;50874;24.150;-110.320;2022-08-21T13:32:40;25.80;99.90
64501;DHT22;50874;24.150;-110.320;2022-08-21T13:37:43;25.80;99.90
64501;DHT22;50874;24.150;-110.320;2022-08-21T13:40:17;25.80;99.90
64501;DHT22;50874;24.150;-110.320;2022-08-21T13:42:46;25.80;99.90
64501;DHT22;50874;24.150;-110.320;2022-08-21T13:45:31;26.20;99.90
64501;DHT22;50874;24.150;-110.320;2022-08-21T13:48:00;26.70;99.90
64501;DHT22;50874;24.150;-110.320;2022-08-21T13:50:27;27.20;99.90
64501;DHT22;50874;24.150;-110.320;2022-08-21T13:53:05;27.60;99.90
64501;DHT22;50874;24.150;-110.320;2022-08-21T13:55:41;28.00;99.90
64501;DHT22;50874;24.150;-110.320;2022-08-21T13:58:09;28.40;99.90
64501;DHT22;50874;24.150;-110.320;2022-08-21T14:00:46;28.70;99.90
64501;DHT22;50874;24.150;-110.320;2022-08-21T14:05:54;29.60;99.90
64501;DHT22;50874;24.150;-110.320;2022-08-21T14:08:34;30.20;99.90
64501;DHT22;50874;24.150;-110.320;2022-08-21T14:11:04;30.50;99.90
64501;DHT22;50874;24.150;-110.320;2022-08-21T14:16:12;31.10;99.90
64501;DHT22;50874;24.150;-110.320;2022-08-21T14:18:53;31.30;99.90
64501;DHT22;50874;24.150;-110.320;2022-08-21T14:21:32;31.60;99.90
64501;DHT22;50874;24.150;-110.320;2022-08-21T14:27:04;32.20;99.90
64501;DHT22;50874;24.150;-110.320;2022-08-21T14:29:38;32.40;99.90
64501;DHT22;50874;24.150;-110.320;2022-08-21T14:32:09;32.70;99.90
64501;DHT22;50874;24.150;-110.320;2022-08-21T14:34:36;32.90;99.90
64501;DHT22;50874;24.150;-110.320;2022-08-21T14:37:02;33.30;99.90
64501;DHT22;50874;24.150;-110.320;2022-08-21T14:39:29;33.60;99.90
64501;DHT22;50874;24.150;-110.320;2022-08-21T14:41:57;33.50;99.90
64501;DHT22;50874;24.150;-110.320;2022-08-21T14:44:24;33.40;99.90
64501;DHT22;50874;24.150;-110.320;2022-08-21T14:46:50;33.50;99.90
64501;DHT22;50874;24.150;-110.320;2022-08-21T14:49:17;33.80;99.90
64501;DHT22;50874;24.150;-110.320;2022-08-21T14:51:43;34.10;99.90
64501;DHT22;50874;24.150;-110.320;2022-08-21T14:54:10;34.20;99.90
64501;DHT22;50874;24.150;-110.320;2022-08-21T14:56:36;34.40;99.90
64501;DHT22;50874;24.150;-110.320;2022-08-21T14:59:07;34.60;99.90
64501;DHT22;50874;24.150;-110.320;2022-08-21T15:01:37;34.90;99.90
64501;DHT22;50874;24.150;-110.320;2022-08-21T15:04:04;35.10;99.90
64501;DHT22;50874;24.150;-110.320;2022-08-21T15:06:30;35.20;99.90
64501;DHT22;50874;24.150;-110.320;2022-08-21T15:08:57;35.50;99.90
64501;DHT22;50874;24.150;-110.320;2022-08-21T15:11:24;35.30;99.90
64501;DHT22;50874;24.150;-110.320;2022-08-21T15:13:55;35.40;99.90
64501;DHT22;50874;24.150;-110.320;2022-08-21T15:16:22;35.40;99.90
64501;DHT22;50874;24.150;-110.320;2022-08-21T15:18:49;35.90;99.90
64501;DHT22;50874;24.150;-110.320;2022-08-21T15:21:15;36.20;99.90
64501;DHT22;50874;24.150;-110.320;2022-08-21T15:23:42;36.50;99.90
64501;DHT22;50874;24.150;-110.320;2022-08-21T15:26:09;36.60;99.90
64501;DHT22;50874;24.150;-110.320;2022-08-21T15:28:35;36.80;99.90
64501;DHT22;50874;24.150;-110.320;2022-08-21T15:31:04;37.00;99.60
64501;DHT22;50874;24.150;-110.320;2022-08-21T15:33:30;36.90;99.00
64501;DHT22;50874;24.150;-110.320;2022-08-21T15:35:57;37.00;98.90
64501;DHT22;50874;24.150;-110.320;2022-08-21T15:38:24;37.30;98.20
64501;DHT22;50874;24.150;-110.320;2022-08-21T15:40:51;37.50;97.90
64501;DHT22;50874;24.150;-110.320;2022-08-21T15:43:31;37.50;98.00
64501;DHT22;50874;24.150;-110.320;2022-08-21T15:45:59;38.00;97.60
64501;DHT22;50874;24.150;-110.320;2022-08-21T15:48:27;37.90;97.10
64501;DHT22;50874;24.150;-110.320;2022-08-21T15:50:54;37.80;96.80
64501;DHT22;50874;24.150;-110.320;2022-08-21T15:53:20;37.90;96.70
64501;DHT22;50874;24.150;-110.320;2022-08-21T15:55:47;38.10;96.80
64501;DHT22;50874;24.150;-110.320;2022-08-21T15:58:17;38.20;96.10
64501;DHT22;50874;24.150;-110.320;2022-08-21T16:00:46;38.20;96.30
64501;DHT22;50874;24.150;-110.320;2022-08-21T16:03:15;38.40;95.60
64501;DHT22;50874;24.150;-110.320;2022-08-21T16:05:43;38.20;95.30
64501;DHT22;50874;24.150;-110.320;2022-08-21T16:08:10;38.30;95.20
64501;DHT22;50874;24.150;-110.320;2022-08-21T16:10:37;38.50;95.10
64501;DHT22;50874;24.150;-110.320;2022-08-21T16:13:09;38.80;94.60
64501;DHT22;50874;24.150;-110.320;2022-08-21T16:15:37;38.50;94.30
64501;DHT22;50874;24.150;-110.320;2022-08-21T16:18:05;38.60;94.30
64501;DHT22;50874;24.150;-110.320;2022-08-21T16:20:31;38.70;94.30
64501;DHT22;50874;24.150;-110.320;2022-08-21T16:22:58;38.90;94.10
64501;DHT22;50874;24.150;-110.320;2022-08-21T16:25:25;39.30;93.30
64501;DHT22;50874;24.150;-110.320;2022-08-21T16:27:55;39.40;93.60
64501;DHT22;50874;24.150;-110.320;2022-08-21T16:30:22;39.50;92.90
64501;DHT22;50874;24.150;-110.320;2022-08-21T16:32:50;39.30;93.10
64501;DHT22;50874;24.150;-110.320;2022-08-21T16:35:18;39.20;94.00
64501;DHT22;50874;24.150;-110.320;2022-08-21T16:37:46;39.70;92.60